Time;durP1;ratioP1;P1;durP2;ratioP2;P2;SDS_P1;SDS_P2;PMS_P1;PMS_P2;Temp;Humidity;BMP_temperature;BMP_pressure;BME280_temperature;BME280_humidity;BME280_pressure;Samples;Min_cycle;Max_cycle;Signal;HPM_P1;HPM_P2
2023/06/26 00:00:58;;;;;;;14.63;8.93;;;20.50;99.90;;;;;;5001832;28;20549;-72
2023/06/26 00:03:48;;;;;;;11.93;8.70;;;20.40;99.90;;;;;;4999723;28;20233;-73
2023/06/26 00:06:38;;;;;;;12.38;9.10;;;20.30;99.90;;;;;;5001685;28;20237;-72
2023/06/26 00:09:27;;;;;;;11.55;8.30;;;20.30;99.90;;;;;;4990096;28;20234;-71
2023/06/26 00:12:19;;;;;;;14.18;9.38;;;20.30;99.90;;;;;;5002253;28;20333;-72
2023/06/26 00:15:08;;;;;;;10.85;8.85;;;20.30;99.90;;;;;;5000203;28;20233;-71
2023/06/26 00:17:57;;;;;;;11.75;8.63;;;20.30;99.90;;;;;;4992595;28;20230;-71
2023/06/26 00:20:51;;;;;;;11.98;9.00;;;20.20;99.90;;;;;;5007269;28;20254;-72
2023/06/26 00:23:40;;;;;;;11.43;8.85;;;20.20;99.90;;;;;;5008650;28;20222;-74
2023/06/26 00:26:28;;;;;;;13.63;9.07;;;20.20;99.90;;;;;;4992004;28;20226;-72
2023/06/26 00:29:18;;;;;;;13.43;9.32;;;20.00;99.90;;;;;;5019704;28;20214;-72
2023/06/26 00:32:08;;;;;;;15.32;9.18;;;20.10;99.90;;;;;;4997867;28;20247;-71
2023/06/26 00:34:56;;;;;;;13.10;8.70;;;20.00;99.90;;;;;;5006226;28;20226;-73
2023/06/26 00:37:47;;;;;;;12.05;9.18;;;20.00;99.90;;;;;;4994937;28;20227;-73
2023/06/26 00:40:36;;;;;;;12.77;9.07;;;20.00;99.90;;;;;;4995313;28;20269;-73
2023/06/26 00:43:26;;;;;;;11.80;8.80;;;20.00;99.90;;;;;;5002850;28;20226;-72
2023/06/26 00:46:15;;;;;;;15.02;9.38;;;20.00;99.90;;;;;;5000213;28;20230;-72
2023/06/26 00:49:04;;;;;;;12.85;9.05;;;20.00;99.90;;;;;;4996716;28;20222;-73
2023/06/26 00:51:57;;;;;;;12.93;8.98;;;19.90;99.90;;;;;;4997784;28;20219;-70
2023/06/26 00:54:52;;;;;;;12.23;8.50;;;19.90;99.90;;;;;;4993523;28;20733;-71
2023/06/26 00:57:41;;;;;;;11.02;8.30;;;19.80;99.90;;;;;;5010247;28;20210;-71
2023/06/26 01:00:31;;;;;;;11.88;8.95;;;19.70;99.90;;;;;;4999336;28;20717;-72
2023/06/26 01:03:20;;;;;;;10.88;8.27;;;19.80;99.90;;;;;;5000148;28;20221;-72
2023/06/26 01:06:11;;;;;;;13.70;9.15;;;19.70;99.90;;;;;;5004636;28;20348;-72
2023/06/26 01:09:01;;;;;;;11.95;8.68;;;19.70;99.90;;;;;;5013680;28;20229;-73
2023/06/26 01:11:51;;;;;;;10.75;8.57;;;19.80;99.90;;;;;;5009099;28;20280;-72
2023/06/26 01:14:40;;;;;;;11.45;8.68;;;19.80;99.90;;;;;;4998058;28;20298;-71
2023/06/26 01:17:31;;;;;;;11.35;8.05;;;19.70;99.90;;;;;;4994036;28;20234;-73
2023/06/26 01:20:21;;;;;;;14.75;9.13;;;19.60;99.90;;;;;;5004681;28;20707;-73
2023/06/26 01:23:22;;;;;;;12.07;8.23;;;19.50;99.90;;;;;;4987137;28;20223;-74
2023/06/26 01:26:30;;;;;;;10.68;8.23;;;19.50;99.90;;;;;;5000233;28;20269;-74
2023/06/26 01:29:20;;;;;;;10.45;7.85;;;19.50;99.90;;;;;;4994598;28;20219;-73
2023/06/26 01:32:13;;;;;;;10.15;8.77;;;19.40;99.90;;;;;;4995571;28;20313;-74
2023/06/26 01:35:03;;;;;;;11.25;8.57;;;19.50;99.90;;;;;;5020019;28;20222;-74
2023/06/26 01:37:53;;;;;;;10.55;8.27;;;19.60;99.90;;;;;;4997154;28;20758;-71
2023/06/26 01:40:43;;;;;;;10.75;8.70;;;19.60;99.90;;;;;;4998808;28;20301;-72
2023/06/26 01:43:41;;;;;;;11.38;8.10;;;19.60;99.90;;;;;;5003908;28;20252;-72
2023/06/26 01:46:40;;;;;;;12.18;8.70;;;19.40;99.90;;;;;;4999595;28;20371;-71
2023/06/26 01:49:37;;;;;;;9.45;8.32;;;19.40;99.90;;;;;;4996426;28;20238;-72
2023/06/26 01:52:32;;;;;;;11.57;8.63;;;19.40;99.90;;;;;;4993727;28;20227;-70
2023/06/26 01:55:26;;;;;;;12.40;8.48;;;19.30;99.90;;;;;;5003666;28;20264;-70
2023/06/26 01:58:16;;;;;;;12.70;8.90;;;19.10;99.90;;;;;;4995844;28;20380;-71
2023/06/26 02:01:07;;;;;;;10.40;8.57;;;19.20;99.90;;;;;;4986491;28;20230;-72
2023/06/26 02:03:56;;;;;;;15.52;8.30;;;19.30;99.90;;;;;;5007894;28;20231;-72
2023/06/26 02:06:45;;;;;;;12.50;8.57;;;19.40;99.90;;;;;;4996093;28;20234;-69
2023/06/26 02:09:34;;;;;;;12.32;8.15;;;19.30;99.90;;;;;;5000246;28;20245;-71
2023/06/26 02:12:22;;;;;;;13.15;7.97;;;19.20;99.90;;;;;;4991654;28;20370;-72
2023/06/26 02:15:11;;;;;;;15.20;8.68;;;19.20;99.90;;;;;;4995212;28;20226;-71
2023/06/26 02:18:02;;;;;;;14.15;8.60;;;19.30;99.90;;;;;;5007180;28;20226;-71
2023/06/26 02:20:51;;;;;;;14.50;8.10;;;19.10;99.90;;;;;;5015197;28;20295;-73
2023/06/26 02:23:40;;;;;;;12.50;8.15;;;19.10;99.90;;;;;;4998868;28;20234;-74
2023/06/26 02:26:28;;;;;;;11.52;8.13;;;19.20;99.90;;;;;;4989176;28;20241;-72
2023/06/26 02:29:17;;;;;;;11.20;8.10;;;19.10;99.90;;;;;;5012617;28;20222;-71
2023/06/26 02:32:07;;;;;;;11.85;8.77;;;19.20;99.90;;;;;;5003073;28;20812;-73
2023/06/26 02:34:57;;;;;;;14.73;9.50;;;19.20;99.90;;;;;;4994203;28;20737;-73
2023/06/26 02:37:47;;;;;;;14.43;8.55;;;19.20;99.90;;;;;;4998439;28;20297;-73
2023/06/26 02:40:36;;;;;;;13.63;8.70;;;19.20;99.90;;;;;;5002250;28;20249;-73
2023/06/26 02:43:25;;;;;;;10.35;8.23;;;19.00;99.90;;;;;;5001720;28;20230;-73
2023/06/26 02:46:14;;;;;;;12.15;8.90;;;19.00;99.90;;;;;;4991992;28;20250;-73
2023/06/26 02:49:03;;;;;;;12.57;8.27;;;18.90;99.90;;;;;;5008569;28;20597;-73
2023/06/26 02:51:53;;;;;;;16.38;8.73;;;19.00;99.90;;;;;;4998669;28;20242;-72
2023/06/26 02:54:48;;;;;;;12.82;8.52;;;19.00;99.90;;;;;;5003564;28;20760;-72
2023/06/26 02:57:37;;;;;;;13.05;9.02;;;19.10;99.90;;;;;;4994138;28;20356;-72
2023/06/26 03:00:29;;;;;;;12.45;8.52;;;19.10;99.90;;;;;;5013805;28;20237;-72
2023/06/26 03:03:22;;;;;;;12.82;8.38;;;19.00;99.90;;;;;;5001401;28;20245;-72
2023/06/26 03:06:11;;;;;;;13.13;8.55;;;19.10;99.90;;;;;;4993744;28;20230;-73
2023/06/26 03:09:02;;;;;;;12.45;8.93;;;19.20;99.90;;;;;;5018748;28;20223;-72
2023/06/26 03:11:52;;;;;;;12.82;8.75;;;19.20;99.90;;;;;;4989810;28;20230;-71
2023/06/26 03:14:44;;;;;;;13.68;8.32;;;19.20;99.90;;;;;;4984697;28;20675;-70
2023/06/26 03:17:35;;;;;;;13.35;8.40;;;19.30;99.90;;;;;;4994038;28;20276;-71
2023/06/26 03:20:27;;;;;;;14.00;8.85;;;19.00;99.90;;;;;;5005184;28;20269;-70
2023/06/26 03:23:18;;;;;;;11.50;8.55;;;19.10;99.90;;;;;;5004997;28;20313;-71
2023/06/26 03:26:09;;;;;;;13.27;8.20;;;19.30;99.90;;;;;;5020255;28;20376;-72
2023/06/26 03:28:59;;;;;;;12.38;8.88;;;19.30;99.90;;;;;;4999330;28;20233;-73
2023/06/26 03:31:48;;;;;;;12.73;8.70;;;19.30;99.90;;;;;;5012180;28;20235;-70
2023/06/26 03:34:37;;;;;;;13.88;8.90;;;19.40;99.90;;;;;;5005093;28;20713;-74
2023/06/26 03:37:27;;;;;;;15.90;9.55;;;19.40;99.90;;;;;;4997097;28;20241;-71
2023/06/26 03:40:16;;;;;;;15.40;8.90;;;19.50;99.90;;;;;;5010509;28;20236;-69
2023/06/26 03:43:07;;;;;;;14.50;9.30;;;19.50;99.90;;;;;;5010279;28;20310;-71
2023/06/26 03:46:06;;;;;;;15.05;8.98;;;19.60;99.90;;;;;;4996353;28;20948;-71
2023/06/26 03:48:55;;;;;;;11.75;8.70;;;19.70;99.90;;;;;;5007769;28;20218;-71
2023/06/26 03:51:44;;;;;;;11.63;8.93;;;19.70;99.90;;;;;;5007801;28;20773;-71
2023/06/26 03:54:33;;;;;;;13.07;9.43;;;19.70;99.90;;;;;;5011999;28;20302;-71
2023/06/26 03:57:22;;;;;;;13.38;8.88;;;19.70;99.90;;;;;;5017457;28;20234;-72
2023/06/26 04:00:15;;;;;;;12.02;8.90;;;19.80;99.90;;;;;;5003785;28;20222;-71
2023/06/26 04:03:04;;;;;;;14.77;9.23;;;19.80;99.90;;;;;;5001145;28;20234;-71
2023/06/26 04:05:53;;;;;;;15.88;9.45;;;20.00;99.90;;;;;;5001172;28;20234;-73
2023/06/26 04:08:42;;;;;;;14.85;9.13;;;20.20;99.90;;;;;;5005823;28;20269;-73
2023/06/26 04:11:31;;;;;;;11.13;8.93;;;20.20;99.90;;;;;;5001915;28;20761;-72
2023/06/26 04:14:20;;;;;;;14.50;9.50;;;20.30;99.90;;;;;;4998507;28;20606;-72
2023/06/26 04:17:11;;;;;;;13.63;9.02;;;20.30;99.90;;;;;;5002717;28;20226;-73
2023/06/26 04:20:00;;;;;;;14.52;9.85;;;20.30;99.90;;;;;;5006800;28;20388;-72
2023/06/26 04:22:49;;;;;;;12.77;9.50;;;20.30;99.90;;;;;;5006475;28;20713;-72
2023/06/26 04:25:38;;;;;;;13.73;9.25;;;20.40;99.90;;;;;;4994691;28;20230;-74
2023/06/26 04:28:27;;;;;;;17.38;10.63;;;20.40;99.90;;;;;;5007237;28;20222;-72
2023/06/26 04:31:16;;;;;;;13.98;10.70;;;20.60;99.90;;;;;;5000519;28;20234;-72
2023/06/26 04:34:07;;;;;;;17.02;10.25;;;20.60;99.90;;;;;;5004217;28;20211;-74
2023/06/26 04:36:56;;;;;;;15.82;10.88;;;20.60;99.90;;;;;;4995301;28;20222;-74
2023/06/26 04:39:44;;;;;;;15.98;10.35;;;20.70;99.90;;;;;;4992313;28;20313;-73
2023/06/26 04:42:33;;;;;;;14.45;9.75;;;20.90;99.90;;;;;;4990390;28;20871;-73
2023/06/26 04:45:22;;;;;;;15.77;10.75;;;21.00;99.90;;;;;;4998416;28;20478;-72
2023/06/26 04:48:11;;;;;;;18.42;10.25;;;21.20;99.90;;;;;;4991194;28;20224;-71
2023/06/26 04:51:02;;;;;;;15.93;10.90;;;21.20;99.90;;;;;;4997991;28;20245;-71
2023/06/26 04:53:50;;;;;;;18.20;10.52;;;21.20;99.90;;;;;;4992107;28;20214;-71
2023/06/26 04:56:40;;;;;;;13.82;10.63;;;21.40;99.90;;;;;;4993405;28;20654;-71
2023/06/26 04:59:29;;;;;;;13.52;9.95;;;21.50;99.90;;;;;;4990283;28;20226;-71
2023/06/26 05:02:18;;;;;;;12.98;9.98;;;21.50;99.90;;;;;;4989965;28;20269;-72
2023/06/26 05:05:07;;;;;;;17.77;10.65;;;21.60;99.90;;;;;;5002666;28;20253;-72
2023/06/26 05:07:57;;;;;;;17.35;12.07;;;21.70;99.90;;;;;;4998826;28;20246;-72
2023/06/26 05:10:46;;;;;;;14.73;10.00;;;21.80;99.90;;;;;;4997742;28;20345;-72
2023/06/26 05:13:35;;;;;;;13.18;9.45;;;21.90;99.90;;;;;;5015696;28;20249;-72
2023/06/26 05:16:24;;;;;;;13.48;9.80;;;21.90;99.90;;;;;;4982614;28;20720;-71
2023/06/26 05:19:13;;;;;;;11.75;9.35;;;21.90;99.90;;;;;;4994798;28;20226;-73
2023/06/26 05:22:06;;;;;;;13.35;9.70;;;22.10;99.90;;;;;;4982403;28;20218;-74
2023/06/26 05:25:00;;;;;;;12.38;9.70;;;22.10;99.90;;;;;;4999124;28;20219;-75
2023/06/26 05:27:49;;;;;;;12.82;9.13;;;22.30;99.90;;;;;;4991264;28;20347;-73
2023/06/26 05:30:39;;;;;;;13.02;9.18;;;22.40;99.90;;;;;;5000799;28;20619;-75
2023/06/26 05:33:29;;;;;;;13.70;9.20;;;22.50;99.90;;;;;;5002717;28;20283;-72
2023/06/26 05:36:21;;;;;;;14.13;9.65;;;22.60;99.90;;;;;;5003607;28;20230;-70
2023/06/26 05:39:10;;;;;;;17.65;10.20;;;22.70;99.90;;;;;;5008348;28;20223;-71
2023/06/26 05:42:03;;;;;;;15.98;9.48;;;22.80;99.90;;;;;;5004610;28;20222;-74
2023/06/26 05:44:51;;;;;;;13.85;9.63;;;22.90;99.90;;;;;;4993556;28;20804;-75
2023/06/26 05:47:41;;;;;;;13.82;9.57;;;23.00;99.90;;;;;;4992858;28;20230;-73
2023/06/26 05:50:31;;;;;;;13.63;9.77;;;23.00;99.90;;;;;;4989662;28;20572;-74
2023/06/26 05:53:21;;;;;;;14.98;10.50;;;23.10;99.90;;;;;;4990773;28;20354;-71
2023/06/26 05:56:11;;;;;;;21.70;11.75;;;23.20;99.90;;;;;;4999754;28;20245;-72
2023/06/26 05:59:03;;;;;;;14.65;9.75;;;23.20;99.90;;;;;;5001044;28;20225;-76
2023/06/26 06:01:52;;;;;;;14.98;9.43;;;23.30;99.90;;;;;;4995589;28;20222;-75
2023/06/26 06:04:41;;;;;;;15.80;8.98;;;23.40;99.90;;;;;;4999557;28;20228;-78
2023/06/26 06:07:30;;;;;;;11.18;8.75;;;23.40;99.90;;;;;;5002262;28;20233;-73
2023/06/26 06:10:19;;;;;;;11.70;7.63;;;23.60;99.90;;;;;;4997937;28;20218;-74
2023/06/26 06:13:08;;;;;;;14.88;8.52;;;23.60;99.90;;;;;;5014940;28;20236;-71
2023/06/26 06:15:58;;;;;;;12.35;7.72;;;23.70;99.90;;;;;;4996717;28;20241;-77
2023/06/26 06:18:47;;;;;;;10.82;6.78;;;23.90;99.90;;;;;;4981818;28;20262;-70
2023/06/26 06:21:35;;;;;;;7.95;6.22;;;24.90;99.90;;;;;;4996677;28;20710;-70
2023/06/26 06:24:24;;;;;;;14.23;6.55;;;24.90;99.90;;;;;;5018650;28;20230;-74
2023/06/26 06:27:13;;;;;;;11.65;6.50;;;24.60;99.90;;;;;;4999839;28;20697;-73
2023/06/26 06:30:02;;;;;;;7.35;6.30;;;24.60;99.90;;;;;;5003098;28;20230;-73
2023/06/26 06:32:55;;;;;;;7.22;5.75;;;24.60;99.90;;;;;;4990545;28;20292;-70
2023/06/26 06:35:44;;;;;;;8.30;6.40;;;24.60;99.90;;;;;;4992241;28;20226;-71
2023/06/26 06:38:33;;;;;;;11.73;6.35;;;24.60;99.90;;;;;;4991172;28;20234;-72
2023/06/26 06:41:21;;;;;;;12.85;6.40;;;25.20;99.90;;;;;;4997458;28;20265;-71
2023/06/26 06:44:10;;;;;;;8.32;5.35;;;25.70;99.90;;;;;;5001395;28;20236;-73
2023/06/26 06:46:59;;;;;;;6.75;5.15;;;26.50;99.70;;;;;;4990772;28;20235;-74
2023/06/26 06:49:49;;;;;;;9.90;5.15;;;26.50;99.90;;;;;;4997524;28;20321;-73
2023/06/26 06:52:40;;;;;;;7.90;4.80;;;26.70;97.60;;;;;;5001740;28;20303;-76
2023/06/26 06:55:29;;;;;;;8.15;4.60;;;26.60;97.30;;;;;;5011086;28;20223;-75
2023/06/26 06:58:18;;;;;;;7.05;4.30;;;26.50;96.70;;;;;;4996920;28;20729;-75
2023/06/26 07:01:07;;;;;;;6.93;4.88;;;26.10;95.60;;;;;;4998597;28;20257;-77
2023/06/26 07:03:57;;;;;;;8.13;4.72;;;26.00;96.00;;;;;;4997776;28;20795;-78
2023/06/26 07:06:48;;;;;;;8.43;4.90;;;26.00;97.40;;;;;;4987417;28;20615;-76
2023/06/26 07:09:37;;;;;;;8.63;5.00;;;26.00;96.00;;;;;;4997977;28;20330;-77
2023/06/26 07:12:26;;;;;;;8.73;4.72;;;26.10;96.20;;;;;;5000705;28;20302;-77
2023/06/26 07:15:15;;;;;;;8.50;4.80;;;27.30;96.20;;;;;;4998681;28;20237;-76
2023/06/26 07:18:05;;;;;;;5.80;4.55;;;27.90;93.70;;;;;;5001843;28;20226;-78
2023/06/26 07:20:57;;;;;;;9.10;5.20;;;27.50;93.40;;;;;;5002506;28;20690;-73
2023/06/26 07:23:47;;;;;;;7.70;5.55;;;27.40;93.60;;;;;;4989260;28;20330;-75
2023/06/26 07:26:36;;;;;;;10.05;5.50;;;27.50;94.50;;;;;;4990602;28;20235;-75
2023/06/26 07:29:33;;;;;;;9.30;5.28;;;27.70;93.00;;;;;;5009508;28;20222;-76
2023/06/26 07:32:22;;;;;;;6.28;5.07;;;27.90;91.90;;;;;;4994700;28;20739;-76
2023/06/26 07:35:11;;;;;;;7.78;5.03;;;28.20;93.90;;;;;;5017366;28;20226;-75
2023/06/26 07:38:00;;;;;;;6.45;4.72;;;28.50;91.70;;;;;;5001744;28;20245;-74
2023/06/26 07:40:51;;;;;;;5.47;4.88;;;28.80;90.60;;;;;;4996675;28;20344;-73
2023/06/26 07:43:40;;;;;;;6.32;4.72;;;29.10;91.80;;;;;;4992284;28;20317;-74
2023/06/26 07:46:29;;;;;;;6.30;4.70;;;29.50;91.10;;;;;;5003576;28;20237;-74
2023/06/26 07:49:18;;;;;;;8.52;5.00;;;29.90;88.60;;;;;;4995652;28;20226;-74
2023/06/26 07:52:10;;;;;;;7.63;5.22;;;29.80;87.10;;;;;;5006968;28;20249;-72
2023/06/26 07:54:59;;;;;;;9.00;5.57;;;30.20;88.80;;;;;;5000819;28;20334;-75
2023/06/26 07:57:51;;;;;;;8.57;5.10;;;30.10;88.60;;;;;;4992168;28;20230;-75
2023/06/26 08:00:42;;;;;;;6.80;4.90;;;29.70;87.80;;;;;;4993087;28;20226;-74
2023/06/26 08:03:30;;;;;;;6.07;5.07;;;30.30;86.70;;;;;;4998421;28;20221;-73
2023/06/26 08:06:23;;;;;;;9.45;5.05;;;29.90;88.20;;;;;;5000915;28;20222;-72
2023/06/26 08:09:13;;;;;;;10.38;5.22;;;30.30;90.80;;;;;;4994547;28;20231;-74
2023/06/26 08:12:02;;;;;;;8.00;5.40;;;30.90;86.40;;;;;;4994221;28;20258;-75
2023/06/26 08:14:52;;;;;;;6.78;5.10;;;30.10;85.50;;;;;;5011074;28;20738;-76
2023/06/26 08:17:42;;;;;;;6.18;4.50;;;29.10;89.50;;;;;;4992107;28;20233;-74
2023/06/26 08:20:35;;;;;;;8.30;5.20;;;28.80;90.80;;;;;;4999319;28;20218;-76
2023/06/26 08:23:25;;;;;;;5.22;4.53;;;29.80;86.10;;;;;;4996724;28;20242;-76
2023/06/26 08:26:14;;;;;;;6.25;4.70;;;30.10;86.10;;;;;;5008196;28;20221;-74
2023/06/26 08:29:07;;;;;;;4.60;4.20;;;30.50;80.40;;;;;;4998062;28;20275;-75
2023/06/26 08:32:02;;;;;;;8.00;4.50;;;31.10;76.20;;;;;;4990425;28;20233;-74
2023/06/26 08:34:51;;;;;;;7.45;4.93;;;31.60;78.80;;;;;;5001595;28;20224;-75
2023/06/26 08:37:40;;;;;;;4.85;4.20;;;30.90;84.10;;;;;;4996516;28;20225;-73
2023/06/26 08:40:29;;;;;;;4.88;4.30;;;30.60;75.30;;;;;;5013432;28;20221;-75
2023/06/26 08:43:19;;;;;;;6.43;4.07;;;31.20;75.90;;;;;;5007551;28;20213;-74
2023/06/26 08:46:08;;;;;;;7.13;4.63;;;31.70;75.40;;;;;;5011462;28;20285;-75
2023/06/26 08:49:05;;;;;;;5.70;4.18;;;32.10;71.20;;;;;;5012674;28;20229;-77
2023/06/26 08:52:03;;;;;;;6.13;4.10;;;32.30;75.30;;;;;;5001364;28;20308;-75
2023/06/26 08:54:57;;;;;;;5.93;4.00;;;32.20;75.70;;;;;;4998494;28;20258;-75
2023/06/26 08:57:46;;;;;;;5.38;4.22;;;33.00;76.50;;;;;;5003083;28;20230;-77
2023/06/26 09:00:36;;;;;;;5.07;3.90;;;33.00;72.80;;;;;;4997533;28;20230;-75
2023/06/26 09:03:27;;;;;;;5.97;4.25;;;32.50;71.50;;;;;;4993419;28;20221;-75
2023/06/26 09:06:18;;;;;;;4.85;4.15;;;31.80;75.30;;;;;;4999063;28;20222;-75
2023/06/26 09:09:07;;;;;;;4.40;4.00;;;32.80;74.60;;;;;;4992049;28;20291;-76
2023/06/26 09:11:56;;;;;;;6.05;4.20;;;32.30;73.00;;;;;;5005563;28;20228;-75
2023/06/26 09:14:45;;;;;;;5.93;4.25;;;32.10;73.50;;;;;;4994880;28;20991;-76
2023/06/26 09:17:40;;;;;;;5.10;3.83;;;31.50;74.50;;;;;;5008105;28;20230;-75
2023/06/26 09:20:30;;;;;;;5.63;4.32;;;32.10;75.20;;;;;;4999477;28;20674;-75
2023/06/26 09:23:23;;;;;;;4.88;4.05;;;31.80;74.20;;;;;;4997143;28;20228;-75
2023/06/26 09:26:12;;;;;;;4.78;4.28;;;31.00;73.30;;;;;;4993656;28;20217;-75
2023/06/26 09:29:02;;;;;;;5.57;4.15;;;31.40;75.90;;;;;;4989594;28;20223;-75
2023/06/26 09:31:52;;;;;;;6.80;4.28;;;31.40;77.50;;;;;;5000375;28;20614;-76
2023/06/26 09:34:43;;;;;;;5.85;4.40;;;32.00;74.10;;;;;;4989166;28;20329;-76
2023/06/26 09:37:33;;;;;;;9.10;4.65;;;32.80;71.70;;;;;;4995904;28;20226;-76
2023/06/26 09:40:23;;;;;;;5.05;4.45;;;33.20;72.00;;;;;;4998899;28;20760;-75
2023/06/26 09:43:15;;;;;;;5.38;4.10;;;34.30;69.30;;;;;;4998483;28;20226;-76
2023/06/26 09:46:04;;;;;;;4.05;3.75;;;34.80;65.00;;;;;;4994550;28;20855;-76
2023/06/26 09:48:59;;;;;;;5.45;3.70;;;35.10;64.20;;;;;;4988563;28;20238;-76
2023/06/26 09:51:51;;;;;;;6.47;3.63;;;36.20;65.50;;;;;;5002032;28;20301;-77
2023/06/26 09:54:40;;;;;;;4.50;3.75;;;37.10;62.70;;;;;;4994378;28;20232;-76
2023/06/26 09:57:31;;;;;;;5.35;4.32;;;37.60;62.00;;;;;;4995220;28;20233;-77
2023/06/26 10:00:20;;;;;;;4.10;3.70;;;38.30;58.80;;;;;;4991127;28;20234;-78
2023/06/26 10:03:09;;;;;;;5.20;3.92;;;39.00;60.10;;;;;;4986951;28;20249;-77
2023/06/26 10:06:00;;;;;;;4.07;3.70;;;39.70;56.80;;;;;;5005113;28;20224;-77
2023/06/26 10:08:50;;;;;;;4.28;3.88;;;39.70;55.80;;;;;;4995515;28;20218;-77
2023/06/26 10:11:45;;;;;;;4.93;4.30;;;40.00;55.60;;;;;;4990000;28;20682;-77
2023/06/26 10:14:37;;;;;;;5.03;3.90;;;39.50;54.60;;;;;;4995997;28;20873;-76
2023/06/26 10:17:31;;;;;;;6.22;3.90;;;39.20;56.50;;;;;;4997221;28;20242;-76
2023/06/26 10:20:20;;;;;;;5.13;4.35;;;36.60;56.50;;;;;;4999700;28;20234;-76
2023/06/26 10:23:10;;;;;;;5.15;3.97;;;37.60;61.00;;;;;;4993930;28;20260;-77
2023/06/26 10:26:01;;;;;;;4.18;3.80;;;39.80;57.30;;;;;;4990826;28;20244;-77
2023/06/26 10:28:57;;;;;;;4.95;3.78;;;41.10;53.90;;;;;;4995015;28;20275;-77
2023/06/26 10:31:52;;;;;;;5.47;3.72;;;40.20;51.90;;;;;;4994818;28;20225;-77
2023/06/26 10:34:42;;;;;;;5.60;3.95;;;40.30;52.20;;;;;;4998750;28;20678;-77
2023/06/26 10:37:44;;;;;;;4.28;3.92;;;41.10;51.30;;;;;;5007877;28;20248;-77
2023/06/26 10:40:42;;;;;;;6.07;3.70;;;42.50;51.50;;;;;;4990153;28;20225;-76
2023/06/26 10:43:32;;;;;;;7.15;3.50;;;42.80;48.20;;;;;;4994194;28;20385;-77
2023/06/26 10:46:23;;;;;;;9.82;3.85;;;43.40;49.00;;;;;;4989259;28;20601;-77
2023/06/26 10:49:13;;;;;;;6.57;3.55;;;44.20;48.90;;;;;;5002925;28;20725;-78
2023/06/26 10:52:03;;;;;;;4.18;3.78;;;40.40;49.60;;;;;;4994780;28;20229;-77
2023/06/26 10:54:56;;;;;;;3.92;3.63;;;41.70;51.70;;;;;;4998586;28;20667;-77
2023/06/26 10:57:49;;;;;;;6.50;4.28;;;43.90;49.80;;;;;;4996671;28;20236;-78
2023/06/26 11:00:49;;;;;;;5.18;3.90;;;45.00;48.20;;;;;;4993330;28;20280;-77
2023/06/26 11:03:39;;;;;;;5.65;3.50;;;45.70;45.70;;;;;;4999651;28;20709;-77
2023/06/26 11:06:30;;;;;;;3.97;3.58;;;45.80;46.30;;;;;;4996991;28;20245;-77
2023/06/26 11:09:25;;;;;;;3.92;3.53;;;46.00;46.80;;;;;;5002574;28;20213;-79
2023/06/26 11:12:14;;;;;;;3.63;3.30;;;45.50;49.10;;;;;;5007638;28;20236;-79
2023/06/26 11:15:03;;;;;;;5.63;3.20;;;46.30;44.00;;;;;;4996550;28;20238;-77
2023/06/26 11:17:52;;;;;;;12.13;3.60;;;47.50;44.50;;;;;;4992321;28;20218;-78
2023/06/26 11:20:44;;;;;;;5.82;3.25;;;45.80;41.80;;;;;;5000899;28;20222;-77
2023/06/26 11:23:37;;;;;;;3.40;3.10;;;45.30;42.10;;;;;;4993737;28;20223;-78
2023/06/26 11:26:25;;;;;;;4.63;3.25;;;45.10;42.50;;;;;;5002848;28;20300;-78
2023/06/26 11:29:14;;;;;;;3.53;3.22;;;45.80;41.50;;;;;;4995255;28;20309;-77
2023/06/26 11:32:06;;;;;;;3.50;3.20;;;47.50;41.90;;;;;;4999722;28;20590;-78
2023/06/26 11:34:58;;;;;;;6.30;3.20;;;48.50;39.40;;;;;;5009458;28;20684;-79
2023/06/26 11:37:47;;;;;;;6.03;3.30;;;48.30;39.20;;;;;;5006243;28;21113;-79
2023/06/26 11:40:38;;;;;;;12.15;3.55;;;49.30;40.80;;;;;;4998356;28;20229;-76
2023/06/26 11:43:28;;;;;;;5.93;3.20;;;50.50;38.00;;;;;;4995849;28;20233;-79
2023/06/26 11:46:18;;;;;;;4.68;3.00;;;51.40;38.30;;;;;;4992223;28;20230;-76
2023/06/26 11:49:08;;;;;;;5.88;3.00;;;51.00;37.10;;;;;;4991797;28;20245;-80
2023/06/26 11:51:57;;;;;;;20.65;3.97;;;50.10;37.90;;;;;;5001225;28;20223;-79
2023/06/26 11:54:46;;;;;;;6.65;3.13;;;51.00;37.70;;;;;;5012922;28;20304;-79
2023/06/26 11:57:37;;;;;;;3.70;3.08;;;51.20;37.60;;;;;;5011529;28;20228;-78
2023/06/26 12:00:25;;;;;;;3.22;2.70;;;52.00;36.70;;;;;;4994045;28;20245;-78
2023/06/26 12:03:15;;;;;;;3.22;2.50;;;52.20;35.60;;;;;;4986886;28;20360;-77
2023/06/26 12:06:05;;;;;;;3.20;2.67;;;53.70;35.80;;;;;;5003573;28;20226;-79
2023/06/26 12:08:56;;;;;;;6.60;4.70;;;54.70;34.70;;;;;;4995177;28;20229;-79
2023/06/26 12:11:48;;;;;;;13.43;8.30;;;53.40;32.20;;;;;;5002256;28;20346;-78
2023/06/26 12:14:40;;;;;;;6.22;4.38;;;50.00;33.50;;;;;;4986327;28;20237;-78
2023/06/26 12:17:29;;;;;;;3.05;2.55;;;49.90;32.80;;;;;;5000145;28;20232;-78
2023/06/26 12:20:20;;;;;;;3.83;3.45;;;49.40;33.80;;;;;;5008208;28;20575;-78
2023/06/26 12:23:13;;;;;;;4.78;3.30;;;50.40;34.60;;;;;;5006400;28;20232;-78
2023/06/26 12:26:18;;;;;;;7.07;4.32;;;52.20;33.80;;;;;;4998831;28;20287;-79
2023/06/26 12:29:08;;;;;;;4.25;3.65;;;47.90;35.80;;;;;;5003778;28;20231;-78
2023/06/26 12:31:58;;;;;;;3.45;2.70;;;50.20;34.10;;;;;;4997022;28;20609;-77
2023/06/26 12:34:50;;;;;;;4.45;3.20;;;47.30;36.30;;;;;;4993863;28;20232;-77
2023/06/26 12:37:42;;;;;;;4.45;3.03;;;44.70;36.50;;;;;;4993316;28;20274;-77
2023/06/26 12:40:30;;;;;;;4.85;3.38;;;40.60;40.30;;;;;;5010894;28;20638;-78
2023/06/26 12:43:27;;;;;;;3.95;3.45;;;41.00;41.90;;;;;;5007563;28;20773;-77
2023/06/26 12:46:16;;;;;;;6.28;3.00;;;40.80;41.30;;;;;;4994600;28;20218;-77
2023/06/26 12:49:06;;;;;;;3.72;3.05;;;38.80;41.60;;;;;;4990580;28;20226;-77
2023/06/26 12:52:18;;;;;;;8.88;5.00;;;36.70;44.00;;;;;;4996525;28;20249;-75
2023/06/26 12:55:08;;;;;;;3.40;2.95;;;36.90;46.00;;;;;;4997091;28;20260;-76
2023/06/26 12:57:57;;;;;;;5.75;3.58;;;36.70;44.60;;;;;;5000600;28;20227;-75
2023/06/26 13:00:46;;;;;;;4.93;4.00;;;35.10;47.10;;;;;;4994110;28;20237;-74
2023/06/26 13:03:35;;;;;;;6.20;3.83;;;34.40;49.20;;;;;;4994614;28;20241;-76
2023/06/26 13:06:25;;;;;;;6.55;3.90;;;33.60;49.40;;;;;;4995108;28;20237;-76
2023/06/26 13:09:14;;;;;;;6.57;3.28;;;33.30;51.70;;;;;;4993686;28;20232;-75
2023/06/26 13:12:04;;;;;;;4.20;3.20;;;32.90;51.20;;;;;;4991923;28;20230;-75
2023/06/26 13:14:56;;;;;;;3.88;3.35;;;32.40;50.40;;;;;;4996909;28;20221;-76
2023/06/26 13:17:44;;;;;;;6.15;3.50;;;32.30;51.60;;;;;;5003499;28;20232;-75
2023/06/26 13:20:33;;;;;;;6.07;3.72;;;32.20;54.10;;;;;;5003359;28;20244;-75
2023/06/26 13:23:23;;;;;;;6.30;3.85;;;31.90;53.00;;;;;;4994238;28;20528;-75
2023/06/26 13:26:12;;;;;;;6.70;3.78;;;31.90;53.40;;;;;;4993350;28;20226;-76
2023/06/26 13:29:22;;;;;;;9.07;5.50;;;31.80;52.70;;;;;;5008782;28;20214;-74
2023/06/26 13:32:11;;;;;;;11.38;5.50;;;31.60;54.20;;;;;;4999623;28;20226;-74
2023/06/26 13:35:03;;;;;;;5.07;4.00;;;31.40;54.20;;;;;;4998122;28;20722;-75
2023/06/26 13:37:53;;;;;;;4.30;3.90;;;31.30;53.50;;;;;;5004670;28;20221;-76
2023/06/26 13:40:44;;;;;;;4.43;3.50;;;31.20;54.60;;;;;;4991403;28;20605;-77
2023/06/26 13:43:33;;;;;;;8.35;4.30;;;30.90;53.00;;;;;;5001586;28;20233;-79
2023/06/26 13:46:22;;;;;;;4.90;3.55;;;31.00;54.40;;;;;;5005052;28;20224;-75
2023/06/26 13:49:11;;;;;;;5.90;3.85;;;30.60;54.20;;;;;;4986539;28;20222;-76
2023/06/26 13:52:00;;;;;;;5.32;4.07;;;30.70;56.70;;;;;;4995550;28;20351;-77
2023/06/26 13:54:50;;;;;;;5.25;3.90;;;30.50;55.20;;;;;;5006498;28;20779;-76
2023/06/26 13:57:41;;;;;;;4.55;3.92;;;30.50;54.40;;;;;;4988029;28;20313;-75
2023/06/26 14:00:31;;;;;;;4.38;3.65;;;30.50;55.50;;;;;;4995115;28;20944;-76
2023/06/26 14:03:19;;;;;;;4.05;3.60;;;30.40;55.20;;;;;;4998116;28;20229;-76
2023/06/26 14:06:08;;;;;;;6.18;3.95;;;30.30;55.60;;;;;;5010714;28;20751;-77
2023/06/26 14:08:59;;;;;;;5.45;3.88;;;30.30;55.90;;;;;;4987195;28;20454;-75
2023/06/26 14:11:49;;;;;;;6.35;3.80;;;30.20;57.40;;;;;;4997413;28;20218;-78
2023/06/26 14:14:40;;;;;;;4.13;3.70;;;30.20;56.40;;;;;;4993906;28;20222;-75
2023/06/26 14:17:29;;;;;;;7.13;3.97;;;30.10;56.80;;;;;;5012259;28;20853;-76
2023/06/26 14:20:20;;;;;;;4.40;3.33;;;30.00;55.00;;;;;;4996958;28;20226;-75
2023/06/26 14:23:09;;;;;;;3.97;3.60;;;30.20;55.90;;;;;;4998713;28;20747;-76
2023/06/26 14:25:58;;;;;;;7.35;3.70;;;29.90;55.10;;;;;;4995404;28;20225;-76
2023/06/26 14:28:47;;;;;;;4.20;3.80;;;30.10;55.60;;;;;;5005830;28;20239;-73
2023/06/26 14:31:37;;;;;;;4.60;4.15;;;30.10;55.70;;;;;;4990038;28;20698;-72
2023/06/26 14:34:26;;;;;;;4.97;4.00;;;30.10;56.20;;;;;;4994404;28;20230;-72
2023/06/26 14:37:16;;;;;;;4.68;3.83;;;30.10;56.10;;;;;;4992774;28;20222;-73
2023/06/26 14:40:07;;;;;;;4.43;4.00;;;30.10;55.90;;;;;;4995463;28;20230;-74